»·PEaware :: N219SW KSEA-CYVR

N219SW :: KSEA-CYVR

FLIGHT INFORMATION

Flight Status: Arrived
Operator: Privately registered:
United States
More flights under this callsign
Pilot: Scott W. (15065)
Aircraft: CESSNA 208 CARAVAN
(C208)
More flights by this aircraft type
Origin: KSEA Seattle-Tacoma Intl
United States
Destination: CYVR Vancouver Intl
Canada
More flights between these airports :: More routes between these airports
Route: + NUW CZBB
File this flight plan on PilotEdge
Remarks:
Altitude:
(Current/Filed)
8,500ft
Speed:
(Current/Filed)
150kts
Departed: 29-May-17 01:59 PM
Arrived: 29-May-17 02:46 PM
Distance/Time
Traveled:
110nm/0:47
Distance/Time
To Go:
Arrived

Flight Plot

Page will automatically refresh every two minutes.

Flight plan parsing failed; only flown route is shown


Map Options




Map Legend


Flown Route
Filed Route
Departure Airport
Arrival Airport
Navaid (VOR, NDB)
Fix

Horizontal Profiles

Position Reports

Time Latitude Longitude Heading Altitude Ground
Speed
29-May-17 13:46 47.462555 -122.302659 0 438ft 0kts
29-May-17 13:47 47.462555 -122.302659 0 438ft 0kts
29-May-17 13:48 47.462555 -122.302658 359 438ft 0kts
29-May-17 13:49 47.462555 -122.302658 359 438ft 0kts
29-May-17 13:50 47.462555 -122.302658 359 438ft 0kts
29-May-17 13:51 47.462555 -122.302658 359 438ft 0kts
29-May-17 13:52 47.462555 -122.302658 359 438ft 0kts
29-May-17 13:53 47.462555 -122.302658 359 438ft 0kts
29-May-17 13:54 47.462555 -122.302658 359 438ft 0kts
29-May-17 13:55 47.462555 -122.302658 359 438ft 0kts
29-May-17 13:56 47.462555 -122.302658 359 438ft 0kts
29-May-17 13:57 47.462555 -122.302658 359 438ft 0kts
29-May-17 13:58 47.462628 -122.304187 266 438ft 10kts
29-May-17 13:59 47.463741 -122.306538 270 438ft 0kts
29-May-17 14:00 47.463713 -122.307185 263 438ft 11kts
29-May-17 14:01 47.446787 -122.307357 178 642ft 107kts
29-May-17 14:02 47.413756 -122.304549 191 1344ft 129kts
29-May-17 14:03 47.409711 -122.350597 284 2085ft 131kts
29-May-17 14:04 47.419723 -122.404245 285 2534ft 148kts
29-May-17 14:05 47.434119 -122.464010 329 2531ft 162kts
29-May-17 14:06 47.478133 -122.475653 335 2527ft 164kts
29-May-17 14:07 47.518729 -122.506584 333 2660ft 158kts
29-May-17 14:08 47.556321 -122.535602 333 3142ft 149kts
29-May-17 14:09 47.594613 -122.554468 355 3639ft 145kts
29-May-17 14:10 47.634577 -122.559392 357 4132ft 144kts
29-May-17 14:11 47.674661 -122.561187 357 4524ft 149kts
29-May-17 14:12 47.718248 -122.562880 357 4525ft 161kts
29-May-17 14:13 47.763565 -122.563929 357 4525ft 164kts
29-May-17 14:14 47.809550 -122.564355 357 4526ft 166kts
29-May-17 14:15 47.855732 -122.570529 350 4529ft 168kts
29-May-17 14:16 47.902029 -122.579018 350 4528ft 168kts
29-May-17 14:17 47.947936 -122.587335 350 4535ft 166kts
29-May-17 14:18 47.993630 -122.595654 350 4544ft 166kts
29-May-17 14:19 48.039340 -122.604003 350 4547ft 165kts
29-May-17 14:20 48.085143 -122.612385 350 4548ft 165kts
29-May-17 14:21 48.128472 -122.620327 350 4549ft 165kts
29-May-17 14:22 48.173918 -122.628665 350 4551ft 165kts
29-May-17 14:23 48.219627 -122.637068 350 4553ft 165kts
29-May-17 14:24 48.265206 -122.645466 350 4554ft 165kts
29-May-17 14:25 48.308335 -122.653428 349 4555ft 166kts
29-May-17 14:26 48.354150 -122.662068 345 4554ft 165kts
29-May-17 14:27 48.397911 -122.682422 339 4553ft 165kts
29-May-17 14:28 48.441976 -122.703360 339 4550ft 167kts
29-May-17 14:29 48.486476 -122.724570 339 4545ft 169kts
29-May-17 14:30 48.531414 -122.745982 339 4530ft 169kts
29-May-17 14:31 48.575651 -122.767164 340 4519ft 166kts
29-May-17 14:32 48.618736 -122.787774 341 4510ft 162kts
29-May-17 14:33 48.661681 -122.808303 340 4502ft 162kts
29-May-17 14:34 48.704641 -122.828927 340 4501ft 162kts
29-May-17 14:35 48.747524 -122.849556 340 4501ft 161kts
29-May-17 14:36 48.790278 -122.870040 340 4500ft 161kts
29-May-17 14:37 48.832889 -122.890597 340 4499ft 161kts
29-May-17 14:38 48.875556 -122.911221 340 4499ft 161kts
29-May-17 14:39 48.918267 -122.931905 339 4499ft 161kts
29-May-17 14:40 48.961147 -122.952717 339 4499ft 162kts
29-May-17 14:41 49.004136 -122.973623 339 4499ft 164kts
29-May-17 14:42 49.047371 -122.994696 339 4500ft 166kts
29-May-17 14:43 49.092745 -123.016252 340 4197ft 179kts
29-May-17 14:44 49.136244 -123.036673 340 3750ft 183kts
29-May-17 14:45 49.178535 -123.062129 316 2736ft 154kts
29-May-17 14:46 49.195196 -123.112141 277 1237ft 100kts
29-May-17 14:47 49.199168 -123.147472 275 238ft 82kts
29-May-17 14:48 49.201992 -123.173577 280 19ft 33kts
29-May-17 14:49 49.200525 -123.179198 111 19ft 13kts
29-May-17 14:57 49.190545 -123.178642 69 19ft 0kts
29-May-17 14:58 49.190784 -123.180039 232 19ft 13kts
29-May-17 14:59 49.187112 -123.179723 100 19ft 23kts
29-May-17 15:00 49.185381 -123.165204 98 19ft 31kts
29-May-17 15:01 49.185316 -123.162588 92 19ft 0kts
29-May-17 15:02 49.185316 -123.162588 92 19ft 0kts

Navigation Log

Ident Type
Flight plan parsing failed, navigation log unavailable